Главная страница
METAR-TAF:

METAR-TAF

Аэропорты :

Саннесшёэн, Норвегия

широта: 65-58N, долгота: 012-28E, высота над уровнем моря: 1 м

Текущие метеонаблюдения

Эта сводка был подготовлена 32 минут назад, в 14:20 UTC
Ветер 18 Узел от южный
Температура 4°C
Влажность 81%
Давление 1017 hPa
Видимость 10 км и более
небольшая облачность на высоте 900 фута
Отдельные облака на высоте 1200 фута, Кучево-дождевые.
Рассеянная облачность на высоте 2000 фута
ливни в окрестностях

METAR: ENST 151420Z 17018KT 9999 VCSH FEW009 SCT012CB BKN020 04/01 Q1017 RMK WIND 300FT 17022KT

Время: 15:52 (14:52 UTC)


TAF: отсутствует

Метеонаблюдения и прогнозы для более 4000 аэропортов (сводки METAR и TAF).

Имеющиеся станции представлены на карте желтыми и красными точками.

Чтобы увидеть название станции, наведите на нее мышь.

Затем щелкните, чтобы увидеть метеонаблюдения и метеопрогнозы.

Управление картой: чтобы увеличить масштаб, щелкните зеленые кнопки с черным крестиком; чтобы уменьшить масштаб, щелкните зеленую кнопку с тире; для просмотра соседних карт щелкайте зеленые стрелки.


METAR-TAF: